Time;durP1;ratioP1;P1;durP2;ratioP2;P2;SDS_P1;SDS_P2;PMS_P1;PMS_P2;Temp;Humidity;BMP_temperature;BMP_pressure;BME280_temperature;BME280_humidity;BME280_pressure;Samples;Min_cycle;Max_cycle;Signal;HPM_P1;HPM_P2
2023/05/19 00:02:22;;;;;;;2.50;1.80;;;;;;;11.25;75.25;101678.65;103790;278;38728;-72
2023/05/19 00:04:57;;;;;;;2.90;1.90;;;;;;;11.19;75.43;101680.86;103778;278;38511;-72
2023/05/19 00:07:32;;;;;;;3.20;1.60;;;;;;;11.19;75.58;101676.85;103751;278;38622;-72
2023/05/19 00:10:15;;;;;;;2.40;1.70;;;;;;;11.20;75.76;101671.22;103788;278;38512;-73
2023/05/19 00:12:49;;;;;;;2.30;1.40;;;;;;;11.19;75.96;101676.48;103838;278;38644;-73
2023/05/19 00:15:27;;;;;;;2.10;1.50;;;;;;;11.18;75.93;101671.11;103776;278;38629;-70
2023/05/19 00:18:04;;;;;;;4.10;1.60;;;;;;;11.20;76.39;101672.63;103785;278;38224;-72
2023/05/19 00:20:41;;;;;;;2.90;1.70;;;;;;;11.18;76.60;101672.33;103795;278;40026;-72
2023/05/19 00:23:15;;;;;;;2.60;1.40;;;;;;;11.16;77.02;101681.10;103795;278;39889;-71
2023/05/19 00:25:49;;;;;;;2.50;1.40;;;;;;;11.10;77.27;101674.94;103814;278;40250;-72
2023/05/19 00:28:24;;;;;;;2.60;1.60;;;;;;;11.07;77.55;101671.33;103818;278;38741;-72
2023/05/19 00:30:59;;;;;;;2.70;1.50;;;;;;;11.09;77.92;101669.70;103714;285;39681;-71
2023/05/19 00:33:35;;;;;;;3.10;2.00;;;;;;;11.10;78.28;101674.58;103808;278;38722;-71
2023/05/19 00:36:10;;;;;;;3.30;1.90;;;;;;;11.10;78.30;101677.53;103795;278;38372;-72
2023/05/19 00:38:47;;;;;;;5.10;2.50;;;;;;;11.08;78.61;101680.36;103854;278;38471;-71
2023/05/19 00:41:22;;;;;;;3.70;1.60;;;;;;;11.10;78.78;101678.41;103839;278;39037;-73
2023/05/19 00:44:01;;;;;;;3.40;1.50;;;;;;;11.11;78.94;101678.40;103880;278;38713;-72
2023/05/19 00:46:38;;;;;;;1.50;1.30;;;;;;;11.08;78.94;101674.61;103733;278;175258;-70
2023/05/19 00:49:13;;;;;;;3.00;1.60;;;;;;;11.07;78.95;101676.20;103784;279;38640;-72
2023/05/19 00:51:47;;;;;;;2.60;1.60;;;;;;;11.08;79.20;101674.08;103643;280;38243;-72
2023/05/19 00:54:23;;;;;;;2.00;1.70;;;;;;;11.08;79.39;101672.86;103808;278;39924;-72
2023/05/19 00:56:58;;;;;;;2.20;2.00;;;;;;;11.05;79.59;101673.44;103807;278;38084;-72
2023/05/19 00:59:32;;;;;;;4.40;1.60;;;;;;;11.01;79.81;101671.60;103743;278;38323;-72
2023/05/19 01:02:07;;;;;;;2.90;1.60;;;;;;;10.98;80.02;101671.48;103790;278;38893;-72
2023/05/19 01:04:42;;;;;;;2.80;1.70;;;;;;;10.97;80.33;101670.27;103793;278;39144;-73
2023/05/19 01:07:20;;;;;;;2.60;2.10;;;;;;;10.97;80.45;101667.14;103825;279;39708;-73
2023/05/19 01:09:55;;;;;;;2.80;2.00;;;;;;;10.92;80.41;101664.62;103830;279;39704;-73
2023/05/19 01:12:29;;;;;;;3.00;1.60;;;;;;;10.89;80.75;101664.67;103804;278;39984;-72
2023/05/19 01:15:10;;;;;;;4.40;2.00;;;;;;;10.86;80.64;101660.36;103857;278;39660;-72
2023/05/19 01:17:53;;;;;;;2.80;2.00;;;;;;;10.86;81.18;101656.34;103800;278;39503;-72
2023/05/19 01:20:31;;;;;;;3.30;1.80;;;;;;;10.87;81.21;101661.56;103881;278;38457;-72
2023/05/19 01:23:27;;;;;;;3.40;2.00;;;;;;;10.89;81.45;101658.74;103902;278;39503;-73
2023/05/19 01:26:20;;;;;;;2.50;1.90;;;;;;;10.89;81.53;101657.86;103848;278;38947;-72
2023/05/19 01:29:34;;;;;;;3.00;1.80;;;;;;;10.88;81.85;101654.40;103813;278;39660;-71
2023/05/19 01:32:10;;;;;;;3.90;2.30;;;;;;;10.86;81.57;101651.80;103642;280;38347;-72
2023/05/19 01:34:47;;;;;;;3.00;2.00;;;;;;;10.89;81.59;101650.89;103792;278;38241;-71
2023/05/19 01:37:21;;;;;;;5.80;2.80;;;;;;;10.86;81.46;101654.08;103763;278;38622;-71
2023/05/19 01:39:56;;;;;;;4.30;2.20;;;;;;;10.84;81.74;101654.45;103814;279;38911;-72
2023/05/19 01:42:35;;;;;;;3.50;2.40;;;;;;;10.87;82.05;101653.90;103623;280;39087;-72
2023/05/19 01:45:11;;;;;;;2.20;2.00;;;;;;;10.90;82.40;101654.90;103808;278;38687;-71
2023/05/19 01:47:49;;;;;;;3.20;2.80;;;;;;;10.92;82.42;101651.52;103789;278;38387;-71
2023/05/19 01:50:27;;;;;;;4.40;3.50;;;;;;;10.94;82.54;101648.87;103824;279;39049;-72
2023/05/19 01:53:03;;;;;;;3.20;2.60;;;;;;;10.98;82.44;101642.14;103807;278;40141;-72
2023/05/19 01:55:42;;;;;;;2.70;2.40;;;;;;;11.02;82.36;101638.77;103813;278;38228;-72
2023/05/19 01:58:23;;;;;;;5.20;3.00;;;;;;;11.03;82.42;101638.92;103647;279;38301;-72
2023/05/19 02:01:06;;;;;;;4.20;2.20;;;;;;;11.01;82.08;101636.48;103818;279;38231;-72
2023/05/19 02:04:05;;;;;;;4.60;2.80;;;;;;;11.00;82.37;101636.17;103863;278;38247;-71
2023/05/19 02:06:46;;;;;;;3.60;2.10;;;;;;;10.97;82.33;101637.47;103808;278;39385;-72
2023/05/19 02:09:28;;;;;;;3.60;2.50;;;;;;;10.97;82.61;101636.74;103815;278;38243;-72
2023/05/19 02:12:11;;;;;;;4.80;2.60;;;;;;;10.97;82.47;101637.64;103797;279;38198;-72
2023/05/19 02:14:53;;;;;;;3.80;3.00;;;;;;;10.95;82.53;101635.23;103788;278;39629;-72
2023/05/19 02:17:31;;;;;;;4.80;3.40;;;;;;;10.90;82.67;101638.99;103759;278;38233;-73
2023/05/19 02:20:08;;;;;;;3.60;3.20;;;;;;;10.85;82.63;101637.33;103822;278;38254;-72
2023/05/19 02:22:42;;;;;;;5.80;3.10;;;;;;;10.80;82.74;101641.77;103773;278;38803;-73
2023/05/19 02:25:22;;;;;;;6.50;4.30;;;;;;;10.76;82.82;101641.15;103843;278;38272;-73
2023/05/19 02:27:58;;;;;;;5.40;3.70;;;;;;;10.76;83.10;101642.92;103756;278;39430;-73
2023/05/19 02:30:32;;;;;;;5.70;3.90;;;;;;;10.74;83.29;101642.58;103742;278;38114;-73
2023/05/19 02:33:06;;;;;;;6.10;4.30;;;;;;;10.73;83.29;101640.86;103772;279;38287;-73
2023/05/19 02:35:44;;;;;;;5.70;4.00;;;;;;;10.72;83.50;101639.84;103740;278;175269;-72
2023/05/19 02:38:22;;;;;;;5.10;3.80;;;;;;;10.71;83.52;101637.60;103806;278;38948;-72
2023/05/19 02:40:58;;;;;;;5.50;4.40;;;;;;;10.68;83.74;101636.07;103792;278;38707;-73
2023/05/19 02:43:33;;;;;;;5.40;3.80;;;;;;;10.67;83.83;101635.39;103695;279;39459;-72
2023/05/19 02:46:10;;;;;;;5.20;3.80;;;;;;;10.70;84.06;101636.92;103841;278;38383;-71
2023/05/19 02:48:48;;;;;;;5.10;3.90;;;;;;;10.69;84.14;101636.75;103776;278;38417;-70
2023/05/19 02:51:25;;;;;;;6.60;4.10;;;;;;;10.67;84.13;101636.64;103812;278;38709;-71
2023/05/19 02:54:05;;;;;;;5.30;4.00;;;;;;;10.67;84.22;101636.45;103792;278;38432;-72
2023/05/19 02:56:38;;;;;;;;;;;;;;;10.68;84.43;101636.24;103867;278;39466;-72
2023/05/19 02:59:13;;;;;;;5.00;4.00;;;;;;;10.64;84.68;101644.17;103820;278;39714;-72
2023/05/19 03:01:47;;;;;;;5.00;3.80;;;;;;;10.62;84.78;101643.85;103702;280;40031;-72
2023/05/19 03:04:21;;;;;;;4.80;4.20;;;;;;;10.63;84.71;101643.86;103833;279;38270;-73
2023/05/19 03:06:56;;;;;;;5.70;4.10;;;;;;;10.62;85.04;101641.60;103788;278;38446;-74
2023/05/19 03:09:30;;;;;;;6.30;4.40;;;;;;;10.59;85.07;101641.30;103786;278;38817;-73
2023/05/19 03:12:06;;;;;;;6.50;3.90;;;;;;;10.58;85.28;101640.44;103762;278;38031;-72
2023/05/19 03:14:43;;;;;;;6.70;4.60;;;;;;;10.58;85.29;101641.31;103792;278;38259;-72
2023/05/19 03:17:18;;;;;;;5.70;5.10;;;;;;;10.63;85.59;101643.50;103763;278;39519;-72
2023/05/19 03:19:54;;;;;;;6.60;5.20;;;;;;;10.65;85.55;101639.98;103774;278;38496;-72
2023/05/19 03:22:28;;;;;;;6.20;5.10;;;;;;;10.65;85.61;101642.77;103755;278;38485;-73
2023/05/19 03:25:03;;;;;;;9.00;6.20;;;;;;;10.66;85.71;101640.67;103837;278;39447;-73
2023/05/19 03:27:37;;;;;;;6.70;5.70;;;;;;;10.68;85.85;101644.80;103806;278;39977;-73
2023/05/19 03:30:14;;;;;;;6.80;5.70;;;;;;;10.73;86.07;101641.58;103836;278;38229;-73
2023/05/19 03:32:51;;;;;;;6.50;5.50;;;;;;;10.79;86.08;101648.63;103817;278;38259;-74
2023/05/19 03:35:26;;;;;;;9.00;5.50;;;;;;;10.84;86.20;101647.48;103809;278;39663;-73
2023/05/19 03:38:01;;;;;;;7.00;5.30;;;;;;;10.88;86.06;101649.15;103802;278;38507;-73
2023/05/19 03:40:37;;;;;;;8.00;5.80;;;;;;;10.89;86.00;101650.17;103844;278;38382;-71
2023/05/19 03:43:14;;;;;;;5.30;4.80;;;;;;;10.91;86.18;101651.89;103856;278;38263;-71
2023/05/19 03:45:51;;;;;;;5.80;4.40;;;;;;;10.93;86.15;101650.09;103859;278;38235;-72
2023/05/19 03:48:26;;;;;;;6.30;4.40;;;;;;;10.98;86.05;101646.68;103823;278;38511;-72
2023/05/19 03:51:07;;;;;;;5.70;4.10;;;;;;;11.03;86.07;101643.27;103809;278;39433;-72
2023/05/19 03:53:45;;;;;;;5.60;4.00;;;;;;;11.06;85.96;101646.52;103141;279;38795;-72
2023/05/19 03:56:22;;;;;;;4.00;3.60;;;;;;;11.09;86.04;101644.56;103810;278;38415;-72
2023/05/19 03:58:56;;;;;;;4.20;3.80;;;;;;;11.10;85.85;101644.02;103786;278;38863;-72
2023/05/19 04:01:31;;;;;;;4.60;3.20;;;;;;;11.12;85.80;101644.83;103778;279;38323;-70
2023/05/19 04:04:27;;;;;;;5.30;3.50;;;;;;;11.14;85.71;101642.71;103803;278;38216;-72
2023/05/19 04:07:22;;;;;;;4.00;3.30;;;;;;;11.17;85.79;101644.57;103774;278;39950;-72
2023/05/19 04:09:56;;;;;;;4.40;3.80;;;;;;;11.20;85.43;101646.61;103793;278;39901;-72
2023/05/19 04:12:30;;;;;;;4.30;3.70;;;;;;;11.20;85.28;101646.08;103787;278;38546;-72
2023/05/19 04:15:06;;;;;;;4.60;3.00;;;;;;;11.20;85.10;101649.58;103767;278;38604;-71
2023/05/19 04:17:41;;;;;;;5.30;3.00;;;;;;;11.16;84.68;101644.06;103769;278;39404;-72
2023/05/19 04:20:19;;;;;;;3.50;2.90;;;;;;;11.18;85.03;101649.80;103763;278;39000;-74
2023/05/19 04:22:56;;;;;;;3.80;3.10;;;;;;;11.19;84.95;101644.36;103798;278;38262;-72
2023/05/19 04:25:30;;;;;;;4.00;2.90;;;;;;;11.20;84.76;101645.39;103791;278;39501;-72
2023/05/19 04:28:04;;;;;;;6.10;3.30;;;;;;;11.21;84.98;101648.14;103810;278;38220;-72
2023/05/19 04:30:45;;;;;;;5.20;3.60;;;;;;;11.21;84.65;101643.42;103851;278;38229;-72
2023/05/19 04:33:23;;;;;;;4.30;2.90;;;;;;;11.20;84.61;101646.25;103870;278;38271;-72
2023/05/19 04:35:57;;;;;;;4.90;2.90;;;;;;;11.19;84.66;101645.75;103815;279;38257;-72
2023/05/19 04:38:32;;;;;;;6.60;3.00;;;;;;;11.22;84.63;101643.08;103841;278;38522;-73
2023/05/19 04:41:09;;;;;;;5.00;3.00;;;;;;;11.22;84.78;101641.33;103847;267;40257;-72
2023/05/19 04:43:43;;;;;;;3.30;3.00;;;;;;;11.24;84.75;101648.96;103846;278;38413;-72
2023/05/19 04:46:22;;;;;;;6.10;3.60;;;;;;;11.23;84.65;101648.13;103800;278;38280;-73
2023/05/19 04:49:00;;;;;;;8.40;2.80;;;;;;;11.21;84.40;101644.31;103667;280;39395;-72
2023/05/19 04:51:34;;;;;;;3.70;2.20;;;;;;;11.24;84.47;101644.27;103818;278;38513;-72
2023/05/19 04:54:08;;;;;;;5.20;2.60;;;;;;;11.26;84.59;101646.65;103806;278;39801;-72
2023/05/19 04:56:43;;;;;;;3.40;2.10;;;;;;;11.29;84.44;101646.41;103641;278;38911;-72
2023/05/19 04:59:17;;;;;;;4.60;3.40;;;;;;;11.32;84.28;101648.11;103832;278;38396;-72
2023/05/19 05:01:54;;;;;;;4.40;3.00;;;;;;;11.34;84.33;101644.91;103772;278;39393;-71
2023/05/19 05:04:30;;;;;;;3.50;1.80;;;;;;;11.34;84.08;101647.36;103823;278;40015;-73
2023/05/19 05:07:05;;;;;;;4.70;2.20;;;;;;;11.34;83.58;101647.88;103765;278;38675;-72
2023/05/19 05:09:42;;;;;;;3.40;1.90;;;;;;;11.36;83.72;101649.94;103818;278;38838;-73
2023/05/19 05:12:23;;;;;;;4.40;2.70;;;;;;;11.36;83.67;101646.79;103784;278;38613;-73
2023/05/19 05:15:01;;;;;;;4.50;2.90;;;;;;;11.40;83.54;101651.27;103862;278;39558;-72
2023/05/19 05:17:45;;;;;;;4.00;1.90;;;;;;;11.40;83.25;101647.94;103847;278;38221;-72
2023/05/19 05:20:24;;;;;;;3.40;2.30;;;;;;;11.39;83.38;101650.94;103856;278;38467;-72
2023/05/19 05:23:08;;;;;;;3.20;2.10;;;;;;;11.39;83.26;101647.26;103860;279;38360;-72
2023/05/19 05:25:46;;;;;;;3.40;2.30;;;;;;;11.39;83.13;101649.02;103877;278;38524;-72
2023/05/19 05:28:23;;;;;;;3.10;2.00;;;;;;;11.41;83.47;101647.56;103863;278;38353;-71
2023/05/19 05:30:59;;;;;;;3.70;2.00;;;;;;;11.45;83.41;101646.97;103823;278;38470;-71
2023/05/19 05:33:34;;;;;;;3.80;2.40;;;;;;;11.48;83.43;101651.27;103694;268;38894;-70
2023/05/19 05:36:14;;;;;;;3.00;2.20;;;;;;;11.50;83.40;101648.25;103793;278;39456;-71
2023/05/19 05:38:49;;;;;;;3.50;2.20;;;;;;;11.54;83.36;101646.09;103810;278;39449;-73
2023/05/19 05:41:28;;;;;;;2.90;2.10;;;;;;;11.55;83.17;101650.05;103821;278;39421;-73
2023/05/19 05:44:02;;;;;;;3.30;2.50;;;;;;;11.57;83.39;101646.70;103826;278;38917;-72
2023/05/19 05:46:37;;;;;;;3.20;1.90;;;;;;;11.60;83.31;101648.89;103809;279;38251;-73
2023/05/19 05:49:16;;;;;;;4.10;2.20;;;;;;;11.65;83.34;101649.31;103816;278;38399;-73
2023/05/19 05:51:56;;;;;;;4.90;2.30;;;;;;;11.68;83.03;101647.34;103830;278;39679;-71
2023/05/19 05:54:35;;;;;;;2.70;2.10;;;;;;;11.68;82.89;101649.28;103782;278;39914;-72
2023/05/19 05:57:13;;;;;;;5.90;2.80;;;;;;;11.69;82.98;101650.48;103791;278;38412;-72
2023/05/19 05:59:56;;;;;;;4.10;2.80;;;;;;;11.71;83.01;101649.37;103869;278;40130;-70
2023/05/19 06:02:40;;;;;;;3.20;2.40;;;;;;;11.74;83.10;101645.81;103739;278;189568;-71
2023/05/19 06:05:19;;;;;;;4.00;2.50;;;;;;;11.73;82.83;101648.11;103819;278;39510;-71
2023/05/19 06:08:07;;;;;;;4.10;2.20;;;;;;;11.70;82.94;101645.73;103593;280;174163;-72
2023/05/19 06:10:44;;;;;;;3.50;2.10;;;;;;;11.76;83.26;101645.23;103843;278;38843;-72
2023/05/19 06:13:22;;;;;;;6.40;2.70;;;;;;;11.84;83.28;101648.23;103790;278;38635;-73
2023/05/19 06:15:59;;;;;;;5.00;2.50;;;;;;;11.89;83.06;101653.55;103860;278;38266;-72
2023/05/19 06:18:33;;;;;;;4.20;2.10;;;;;;;11.92;83.15;101650.15;103814;278;38645;-73
2023/05/19 06:21:12;;;;;;;4.50;2.60;;;;;;;11.98;83.50;101652.13;103792;278;38336;-72
2023/05/19 06:23:46;;;;;;;4.60;2.50;;;;;;;12.02;83.14;101650.77;103817;278;38232;-72
2023/05/19 06:26:20;;;;;;;5.70;2.50;;;;;;;12.07;83.04;101650.52;103788;278;39601;-72
2023/05/19 06:28:57;;;;;;;4.50;2.60;;;;;;;12.07;83.26;101654.17;103167;278;919001;-73
2023/05/19 06:31:32;;;;;;;3.10;2.10;;;;;;;12.13;83.24;101654.55;103810;278;38846;-72
2023/05/19 06:34:09;;;;;;;3.50;2.80;;;;;;;12.17;82.83;101656.03;103713;278;172443;-74
2023/05/19 06:36:48;;;;;;;3.30;2.00;;;;;;;12.14;82.51;101653.13;103782;278;38264;-72
2023/05/19 06:39:20;;;;;;;;;;;;;;;12.16;82.53;101652.38;103842;278;38917;-73
2023/05/19 06:41:55;;;;;;;4.30;2.00;;;;;;;12.14;82.43;101655.94;103805;278;39446;-73
2023/05/19 06:44:29;;;;;;;8.60;2.90;;;;;;;12.18;82.73;101652.86;103700;278;174734;-72
2023/05/19 06:47:03;;;;;;;5.80;3.30;;;;;;;12.21;82.56;101653.30;103855;278;40279;-71
2023/05/19 06:49:37;;;;;;;4.30;2.60;;;;;;;12.20;82.32;101649.83;103886;278;38463;-73
2023/05/19 06:52:11;;;;;;;5.80;2.50;;;;;;;12.17;82.27;101647.46;103838;278;38351;-73
2023/05/19 06:54:45;;;;;;;3.40;2.10;;;;;;;12.18;82.50;101644.64;103850;279;38424;-71
2023/05/19 06:57:21;;;;;;;3.50;2.10;;;;;;;12.19;82.34;101642.86;103715;278;175278;-73
2023/05/19 06:59:55;;;;;;;4.40;2.10;;;;;;;12.22;82.57;101643.48;103817;278;38464;-73
2023/05/19 07:02:33;;;;;;;2.80;1.90;;;;;;;12.23;82.60;101637.51;103831;278;38721;-73
2023/05/19 07:05:12;;;;;;;2.50;1.90;;;;;;;12.23;82.39;101642.40;103823;278;39565;-72
2023/05/19 07:07:46;;;;;;;3.70;2.60;;;;;;;12.20;82.28;101644.60;103809;278;39043;-72
2023/05/19 07:10:20;;;;;;;3.80;2.60;;;;;;;12.16;82.15;101645.73;103796;278;38288;-72
2023/05/19 07:12:55;;;;;;;5.60;2.40;;;;;;;12.15;82.30;101644.00;103787;278;38335;-71
2023/05/19 07:15:29;;;;;;;4.80;2.70;;;;;;;12.18;82.50;101638.70;103831;278;38359;-72
2023/05/19 07:18:06;;;;;;;2.70;2.30;;;;;;;12.19;82.39;101641.11;103811;279;38237;-72
2023/05/19 07:20:42;;;;;;;3.30;2.40;;;;;;;12.18;82.35;101637.98;103815;278;39136;-73
2023/05/19 07:23:20;;;;;;;6.40;3.00;;;;;;;12.18;82.51;101635.55;103794;275;40137;-72
2023/05/19 07:25:59;;;;;;;7.20;3.30;;;;;;;12.19;82.51;101634.65;103708;278;175210;-72
2023/05/19 07:28:34;;;;;;;5.00;2.30;;;;;;;12.23;82.46;101643.30;103821;278;38450;-71
2023/05/19 07:31:12;;;;;;;4.00;2.30;;;;;;;12.25;82.44;101640.77;103857;278;38704;-72
2023/05/19 07:33:47;;;;;;;4.60;2.30;;;;;;;12.26;82.39;101642.48;103817;278;38449;-72
2023/05/19 07:36:22;;;;;;;5.10;3.00;;;;;;;12.24;82.34;101642.39;103809;278;38616;-73
2023/05/19 07:38:57;;;;;;;3.80;2.30;;;;;;;12.22;82.44;101641.55;103854;278;38251;-72
2023/05/19 07:41:31;;;;;;;5.20;2.40;;;;;;;12.21;82.48;101642.79;103857;279;38279;-71
2023/05/19 07:44:09;;;;;;;6.30;2.20;;;;;;;12.22;82.57;101642.62;103703;280;38281;-72
2023/05/19 07:46:48;;;;;;;3.20;2.10;;;;;;;12.22;82.77;101641.38;103804;278;38399;-71
2023/05/19 07:49:24;;;;;;;4.40;2.60;;;;;;;12.25;82.77;101644.64;103820;278;38796;-70
2023/05/19 07:52:00;;;;;;;9.00;3.00;;;;;;;12.27;82.93;101645.46;103808;278;39444;-71
2023/05/19 07:54:38;;;;;;;6.00;2.70;;;;;;;12.33;83.03;101647.77;103680;278;38933;-71
2023/05/19 07:57:14;;;;;;;6.30;3.00;;;;;;;12.35;82.66;101646.14;103793;278;39806;-71
2023/05/19 07:59:49;;;;;;;4.00;2.70;;;;;;;12.32;82.57;101648.48;103785;278;38267;-72
2023/05/19 08:02:23;;;;;;;3.90;2.40;;;;;;;12.34;82.73;101643.35;103815;279;38312;-72
2023/05/19 08:05:00;;;;;;;4.50;2.50;;;;;;;12.37;82.74;101642.08;103848;278;39844;-73
2023/05/19 08:07:34;;;;;;;3.30;2.20;;;;;;;12.39;82.88;101644.80;103794;278;38946;-73
2023/05/19 08:10:11;;;;;;;5.40;2.50;;;;;;;12.38;82.87;101644.48;103772;278;38306;-72
2023/05/19 08:12:53;;;;;;;4.90;2.40;;;;;;;12.37;83.10;101640.84;103659;279;175151;-72
2023/05/19 08:15:29;;;;;;;5.20;2.50;;;;;;;12.34;82.98;101645.29;103656;278;174830;-72
2023/05/19 08:18:06;;;;;;;4.90;2.20;;;;;;;12.36;83.24;101638.59;103811;278;39641;-71
2023/05/19 08:20:40;;;;;;;4.70;2.40;;;;;;;12.40;82.99;101640.23;103863;278;38252;-72
2023/05/19 08:23:16;;;;;;;3.60;2.30;;;;;;;12.44;82.91;101641.90;103802;278;38813;-72
2023/05/19 08:25:51;;;;;;;5.00;2.50;;;;;;;12.44;82.73;101640.85;103811;278;38495;-74
2023/05/19 08:28:27;;;;;;;5.40;2.60;;;;;;;12.44;82.94;101644.33;103819;278;38913;-73
2023/05/19 08:31:02;;;;;;;4.20;2.50;;;;;;;12.40;82.96;101644.08;103828;278;38534;-73
2023/05/19 08:33:40;;;;;;;5.10;2.40;;;;;;;12.39;82.93;101642.72;103807;278;39994;-72
2023/05/19 08:36:14;;;;;;;4.90;2.40;;;;;;;12.37;82.83;101641.01;103775;278;39666;-72
2023/05/19 08:38:49;;;;;;;4.30;2.30;;;;;;;12.38;83.05;101638.89;103796;267;38764;-73
2023/05/19 08:41:23;;;;;;;5.00;2.60;;;;;;;12.43;83.59;101634.23;103684;278;189077;-72
2023/05/19 08:44:02;;;;;;;6.40;2.70;;;;;;;12.46;83.56;101631.16;103652;278;175224;-73
2023/05/19 08:46:39;;;;;;;4.80;2.50;;;;;;;12.50;83.39;101631.59;103795;278;38510;-71
2023/05/19 08:49:17;;;;;;;3.70;2.50;;;;;;;12.51;83.48;101632.06;103782;279;38476;-72
2023/05/19 08:51:57;;;;;;;5.50;2.50;;;;;;;12.55;83.49;101635.66;103812;278;38326;-72
2023/05/19 08:54:37;;;;;;;6.00;3.10;;;;;;;12.56;83.40;101633.69;103804;278;38754;-72
2023/05/19 08:57:12;;;;;;;5.40;3.40;;;;;;;12.57;83.44;101630.89;103847;278;39598;-72
2023/05/19 08:59:47;;;;;;;6.40;3.40;;;;;;;12.58;83.26;101633.13;103828;278;39721;-72
2023/05/19 09:02:22;;;;;;;5.50;2.80;;;;;;;12.56;83.25;101633.16;103851;278;39846;-72
2023/05/19 09:04:56;;;;;;;6.70;3.40;;;;;;;12.61;83.40;101634.63;103775;278;38248;-72
2023/05/19 09:07:33;;;;;;;6.90;2.90;;;;;;;12.65;83.25;101634.84;103798;278;39805;-73
2023/05/19 09:10:13;;;;;;;8.80;3.80;;;;;;;12.71;83.30;101634.89;103828;278;39561;-72
2023/05/19 09:12:55;;;;;;;7.70;3.70;;;;;;;12.77;83.33;101635.80;103809;278;38969;-72
2023/05/19 09:15:30;;;;;;;6.90;3.70;;;;;;;12.79;83.15;101634.33;103779;279;39007;-72
2023/05/19 09:18:13;;;;;;;7.40;3.50;;;;;;;12.81;82.96;101633.38;103758;278;38824;-70
2023/05/19 09:20:47;;;;;;;7.00;3.00;;;;;;;12.87;83.11;101639.52;103835;278;38285;-73
2023/05/19 09:23:23;;;;;;;7.80;3.50;;;;;;;12.93;82.89;101633.94;103785;278;38896;-72
2023/05/19 09:26:00;;;;;;;7.20;3.70;;;;;;;13.00;82.78;101634.27;103697;280;39290;-72
2023/05/19 09:28:35;;;;;;;7.10;4.40;;;;;;;13.03;82.63;101631.55;103820;278;39382;-73
2023/05/19 09:31:11;;;;;;;12.10;4.50;;;;;;;13.07;82.37;101631.27;103860;278;38545;-72
2023/05/19 09:33:45;;;;;;;7.20;4.20;;;;;;;13.13;82.66;101633.71;103835;279;38390;-72
2023/05/19 09:36:20;;;;;;;9.80;4.50;;;;;;;13.19;82.12;101637.74;103807;278;39653;-73
2023/05/19 09:38:55;;;;;;;13.80;5.40;;;;;;;13.24;82.33;101632.73;103831;278;38812;-72
2023/05/19 09:41:30;;;;;;;11.90;4.80;;;;;;;13.31;82.09;101631.99;103846;278;38669;-71
2023/05/19 09:44:06;;;;;;;9.40;4.10;;;;;;;13.41;81.89;101631.73;103830;278;40145;-72
2023/05/19 09:46:43;;;;;;;7.80;3.80;;;;;;;13.42;81.21;101630.96;103789;278;38594;-72
2023/05/19 09:49:22;;;;;;;9.60;3.90;;;;;;;13.41;81.16;101632.23;103827;278;38530;-72
2023/05/19 09:51:59;;;;;;;14.10;4.00;;;;;;;13.47;81.31;101635.23;103756;279;38520;-73
2023/05/19 09:54:34;;;;;;;8.30;4.20;;;;;;;13.49;80.57;101635.86;103799;278;38224;-73
2023/05/19 09:57:08;;;;;;;10.70;4.00;;;;;;;13.45;79.62;101635.45;103802;278;39112;-72
2023/05/19 09:59:45;;;;;;;9.00;4.50;;;;;;;13.42;79.96;101637.45;103842;278;40315;-74
2023/05/19 10:02:24;;;;;;;14.80;4.50;;;;;;;13.43;80.18;101635.31;103844;278;39910;-72
2023/05/19 10:04:59;;;;;;;10.70;4.30;;;;;;;13.47;80.34;101634.01;103839;278;38327;-73
2023/05/19 10:07:36;;;;;;;9.60;4.60;;;;;;;13.48;79.96;101636.25;103820;278;38794;-74
2023/05/19 10:10:15;;;;;;;11.10;4.20;;;;;;;13.45;79.56;101634.24;103830;278;38413;-72
2023/05/19 10:12:50;;;;;;;11.80;4.50;;;;;;;13.47;79.99;101633.13;103824;278;40156;-72
2023/05/19 10:15:27;;;;;;;10.10;4.70;;;;;;;13.52;79.47;101632.97;103774;278;39913;-72
2023/05/19 10:18:01;;;;;;;13.80;4.60;;;;;;;13.50;79.20;101627.79;103808;278;38270;-72
2023/05/19 10:20:38;;;;;;;8.50;4.50;;;;;;;13.49;79.73;101627.98;103783;278;39632;-72
2023/05/19 10:23:13;;;;;;;11.50;4.70;;;;;;;13.49;79.25;101625.71;103793;278;38781;-72
2023/05/19 10:25:48;;;;;;;13.70;4.10;;;;;;;13.50;79.87;101623.56;103799;278;38292;-73
2023/05/19 10:28:24;;;;;;;12.50;4.40;;;;;;;13.56;79.71;101618.48;103789;278;40124;-73
2023/05/19 10:31:01;;;;;;;10.70;4.70;;;;;;;13.62;79.47;101617.39;103813;278;38442;-72
2023/05/19 10:33:47;;;;;;;13.40;4.50;;;;;;;13.65;79.49;101614.52;103785;278;40114;-73
2023/05/19 10:36:43;;;;;;;11.10;4.50;;;;;;;13.68;79.07;101614.95;103845;278;39632;-72
2023/05/19 10:39:28;;;;;;;9.80;4.80;;;;;;;13.69;78.89;101617.20;103839;278;38217;-71
2023/05/19 10:42:11;;;;;;;9.10;4.20;;;;;;;13.75;78.93;101617.35;103869;278;39911;-73
2023/05/19 10:45:04;;;;;;;10.70;4.70;;;;;;;13.80;78.61;101615.27;103861;278;38533;-71
2023/05/19 10:47:38;;;;;;;6.80;3.70;;;;;;;13.83;78.58;101611.30;103726;278;175096;-72
2023/05/19 10:50:19;;;;;;;9.30;4.40;;;;;;;13.87;78.18;101613.30;103853;278;38234;-73
2023/05/19 10:52:59;;;;;;;9.10;4.10;;;;;;;13.88;78.35;101612.02;103824;278;38460;-73
2023/05/19 10:55:50;;;;;;;11.10;3.90;;;;;;;13.91;78.09;101612.83;103824;278;40686;-70
2023/05/19 10:58:52;;;;;;;14.40;4.80;;;;;;;13.97;78.47;101612.64;103805;278;39845;-72
2023/05/19 11:01:33;;;;;;;9.30;4.30;;;;;;;14.09;78.46;101614.32;103768;278;39436;-73
2023/05/19 11:04:12;;;;;;;6.50;3.80;;;;;;;14.30;78.55;101605.56;103828;278;38293;-72
2023/05/19 11:06:52;;;;;;;8.50;4.30;;;;;;;14.53;78.19;101608.83;103818;278;39402;-73
2023/05/19 11:09:32;;;;;;;15.10;4.70;;;;;;;14.74;77.90;101607.23;103759;278;39690;-73
2023/05/19 11:12:10;;;;;;;9.80;4.60;;;;;;;14.87;77.02;101607.99;103814;278;39437;-74
2023/05/19 11:14:47;;;;;;;9.50;4.30;;;;;;;14.92;76.09;101607.97;103811;278;38236;-72
2023/05/19 11:17:24;;;;;;;9.90;4.70;;;;;;;14.91;74.91;101611.02;103813;278;39738;-73
2023/05/19 11:19:59;;;;;;;8.40;4.20;;;;;;;14.82;74.67;101612.39;103861;278;38290;-73
2023/05/19 11:22:42;;;;;;;10.70;5.30;;;;;;;14.82;75.24;101608.89;103847;278;37998;-73
2023/05/19 11:25:20;;;;;;;9.40;4.90;;;;;;;14.84;75.26;101610.20;103695;280;39744;-73
2023/05/19 11:27:57;;;;;;;12.80;5.90;;;;;;;14.84;74.94;101611.98;103865;278;38315;-72
2023/05/19 11:30:31;;;;;;;8.00;4.40;;;;;;;14.82;74.87;101610.46;103696;279;38417;-73
2023/05/19 11:33:06;;;;;;;11.40;4.70;;;;;;;14.82;74.56;101612.23;103781;278;38231;-73
2023/05/19 11:35:42;;;;;;;10.30;4.50;;;;;;;14.83;74.62;101611.50;103764;282;39656;-72
2023/05/19 11:38:20;;;;;;;9.30;4.90;;;;;;;14.82;74.03;101612.21;103771;278;40427;-73
2023/05/19 11:40:58;;;;;;;7.50;4.60;;;;;;;14.84;74.10;101610.90;103827;278;39004;-73
2023/05/19 11:43:32;;;;;;;10.50;4.30;;;;;;;14.89;73.97;101608.99;103845;278;38274;-73
2023/05/19 11:46:08;;;;;;;9.60;4.70;;;;;;;14.89;73.75;101608.98;103830;279;38275;-73
2023/05/19 11:48:49;;;;;;;8.60;4.20;;;;;;;14.89;73.37;101608.10;103804;278;38725;-72
2023/05/19 11:51:27;;;;;;;9.20;4.10;;;;;;;14.88;73.33;101610.06;103360;278;670229;-72
2023/05/19 11:54:06;;;;;;;8.80;4.40;;;;;;;14.86;72.99;101612.94;103618;278;175071;-72
2023/05/19 11:56:46;;;;;;;9.00;4.60;;;;;;;14.88;73.20;101610.25;103852;278;39558;-72
2023/05/19 11:59:29;;;;;;;8.80;5.20;;;;;;;14.97;73.49;101616.44;103911;278;39982;-71
2023/05/19 12:02:16;;;;;;;11.20;5.30;;;;;;;15.04;72.76;101610.17;103809;278;39458;-72
2023/05/19 12:04:51;;;;;;;8.20;4.20;;;;;;;15.08;72.83;101612.16;103843;278;38825;-72
2023/05/19 12:07:26;;;;;;;8.20;4.70;;;;;;;15.11;72.17;101613.80;103792;278;38283;-72
2023/05/19 12:10:01;;;;;;;9.30;4.40;;;;;;;15.09;71.93;101610.01;103810;278;38663;-73
2023/05/19 12:12:39;;;;;;;9.50;4.40;;;;;;;15.07;71.88;101610.80;103810;278;38501;-71